Terminal Aerodrome Forecast
Issued by NWS

Home | Current Version | Previous Version | Text Only | Print | Product List | Glossary On
Versions: 1 2 3 4 5 6 7 8 9 10 11 12 13 14 15 16 17 18 19
000
FTUS45 KBYZ 181738
TAFLVM
TAF
KLVM 181738Z 1818/1918 25015KT P6SM VCSH FEW025 BKN050
     FM182000 26025G35KT P6SM VCSH SCT050 BKN080
     FM190200 27015G25KT P6SM SCT080
     FM190600 25013KT P6SM SCT200=

USA.gov is the U.S. government's official web portal to all federal, state and local government web resources and services.